createdAt,value
2023-02-01T00:00:53.492Z,8.94
2023-02-01T00:03:20.500Z,8.90
2023-02-01T00:05:59.716Z,8.85
2023-02-01T00:08:27.477Z,8.84
2023-02-01T00:11:10.939Z,8.79
2023-02-01T00:13:39.895Z,8.78
2023-02-01T00:16:17.560Z,8.80
2023-02-01T00:18:45.783Z,8.79
2023-02-01T00:21:14.185Z,8.75
2023-02-01T00:23:41.758Z,8.74
2023-02-01T00:26:15.135Z,8.73
2023-02-01T00:28:42.601Z,8.71
2023-02-01T00:31:09.586Z,8.68
2023-02-01T00:33:36.605Z,8.66
2023-02-01T00:36:08.492Z,8.67
2023-02-01T00:38:38.446Z,8.63
2023-02-01T00:41:13.437Z,8.64
2023-02-01T00:43:40.875Z,8.61
2023-02-01T00:46:08.260Z,8.57
2023-02-01T00:48:35.752Z,8.54
2023-02-01T00:51:04.876Z,8.53
2023-02-01T00:53:32.270Z,8.49
2023-02-01T00:55:59.709Z,8.49
2023-02-01T00:58:27.748Z,8.46
2023-02-01T01:01:14.869Z,8.43
2023-02-01T01:03:44.727Z,8.38
2023-02-01T01:06:14.222Z,8.37
2023-02-01T01:08:42.102Z,8.34
2023-02-01T01:11:16.015Z,8.30
2023-02-01T01:13:43.778Z,8.27
2023-02-01T01:16:12.080Z,8.26
2023-02-01T01:18:40.807Z,8.23
2023-02-01T01:21:08.948Z,8.21
2023-02-01T01:23:37.348Z,8.19
2023-02-01T01:26:18.790Z,8.16
2023-02-01T01:28:46.677Z,8.12
2023-02-01T01:31:16.107Z,8.07
2023-02-01T01:33:44.989Z,8.04
2023-02-01T01:36:13.328Z,8.02
2023-02-01T01:38:41.713Z,8.00
2023-02-01T01:41:12.985Z,7.97
2023-02-01T01:43:57.539Z,7.94
2023-02-01T01:46:32.429Z,7.89
2023-02-01T01:49:08.320Z,7.87
2023-02-01T01:51:40.372Z,7.75
2023-02-01T01:54:18.396Z,7.72
2023-02-01T01:56:50.166Z,7.70
2023-02-01T01:59:17.812Z,7.66
2023-02-01T02:01:45.310Z,7.60
2023-02-01T02:04:12.535Z,7.55
2023-02-01T02:07:03.322Z,7.48
2023-02-01T02:09:33.628Z,7.45
2023-02-01T02:12:00.631Z,7.39
2023-02-01T02:14:31.146Z,7.38
2023-02-01T02:17:16.830Z,7.31
2023-02-01T02:20:10.767Z,7.26
2023-02-01T02:23:13.179Z,7.15
2023-02-01T02:26:21.204Z,7.05
2023-02-01T02:28:51.868Z,6.97
2023-02-01T02:31:36.110Z,6.88
2023-02-01T02:34:40.036Z,6.77
2023-02-01T02:37:19.374Z,6.71
2023-02-01T02:39:58.486Z,6.70
2023-02-01T02:42:58.188Z,6.63
2023-02-01T02:46:02.032Z,6.58
2023-02-01T02:48:55.454Z,6.54
2023-02-01T02:51:48.051Z,6.54
2023-02-01T02:54:39.025Z,6.46
2023-02-01T02:57:37.724Z,6.40
2023-02-01T03:00:28.234Z,6.41
2023-02-01T03:03:14.297Z,6.37
2023-02-01T03:05:45.741Z,6.36
2023-02-01T03:08:26.673Z,6.36
2023-02-01T03:11:16.533Z,6.36
2023-02-01T03:13:56.198Z,6.37
2023-02-01T03:16:33.117Z,6.33
2023-02-01T03:19:13.239Z,6.37
2023-02-01T03:21:51.309Z,6.37
2023-02-01T03:24:21.806Z,6.35
2023-02-01T03:27:01.720Z,6.34
2023-02-01T03:29:38.456Z,6.37
2023-02-01T03:32:06.224Z,6.38
2023-02-01T03:34:33.774Z,6.41
2023-02-01T03:37:06.002Z,6.38
2023-02-01T03:39:43.567Z,6.39
2023-02-01T03:42:27.014Z,6.35
2023-02-01T03:45:11.348Z,6.36
2023-02-01T03:47:46.445Z,6.36
2023-02-01T03:50:17.821Z,6.37
2023-02-01T03:53:08.971Z,6.36
2023-02-01T03:55:37.682Z,6.43
2023-02-01T03:58:19.519Z,6.45
2023-02-01T04:00:58.337Z,6.47
2023-02-01T04:03:26.646Z,6.48
2023-02-01T04:05:54.751Z,6.48
2023-02-01T04:08:25.790Z,6.48
2023-02-01T04:10:52.772Z,6.51
2023-02-01T04:13:19.737Z,6.53
2023-02-01T04:15:50.872Z,6.50
2023-02-01T04:18:17.973Z,6.52
2023-02-01T04:20:45.479Z,6.53
2023-02-01T04:23:12.511Z,6.50
2023-02-01T04:25:39.505Z,6.46
2023-02-01T04:28:07.988Z,6.44
2023-02-01T04:30:35.582Z,6.39
2023-02-01T04:33:04.761Z,6.40
2023-02-01T04:35:31.709Z,6.38
2023-02-01T04:37:58.993Z,6.38
2023-02-01T04:40:26.102Z,6.35
2023-02-01T04:42:53.053Z,6.33
2023-02-01T04:45:20.065Z,6.29
2023-02-01T04:47:47.090Z,6.25
2023-02-01T04:50:14.116Z,6.24
2023-02-01T04:52:41.687Z,6.25
2023-02-01T04:55:09.114Z,6.27
2023-02-01T04:57:36.023Z,6.28
2023-02-01T05:00:03.777Z,6.30
2023-02-01T05:02:30.727Z,6.34
2023-02-01T05:04:57.716Z,6.36
2023-02-01T05:07:24.931Z,6.40
2023-02-01T05:09:52.226Z,6.44
2023-02-01T05:12:37.651Z,6.45
2023-02-01T05:15:05.272Z,6.44
2023-02-01T05:17:32.197Z,6.44
2023-02-01T05:19:59.115Z,6.50
2023-02-01T05:22:26.088Z,6.52
2023-02-01T05:24:53.027Z,6.52
2023-02-01T05:27:19.928Z,6.51
2023-02-01T05:29:46.841Z,6.50
2023-02-01T05:32:22.080Z,6.44
2023-02-01T05:34:50.280Z,6.40
2023-02-01T05:37:17.266Z,6.38
2023-02-01T05:39:44.197Z,6.29
2023-02-01T05:42:11.182Z,6.26
2023-02-01T05:44:38.224Z,6.24
2023-02-01T05:47:05.516Z,6.22
2023-02-01T05:49:32.418Z,6.17
2023-02-01T05:52:00.483Z,6.13
2023-02-01T05:54:28.074Z,6.10
2023-02-01T05:56:55.065Z,6.07
2023-02-01T05:59:22.084Z,6.03
2023-02-01T06:01:49.192Z,6.02
2023-02-01T06:04:16.155Z,6.00
2023-02-01T06:06:43.126Z,5.97
2023-02-01T06:09:11.590Z,5.92
2023-02-01T06:11:38.606Z,5.91
2023-02-01T06:14:05.666Z,5.86
2023-02-01T06:16:32.808Z,5.83
2023-02-01T06:18:59.894Z,5.81
2023-02-01T06:21:26.921Z,5.80
2023-02-01T06:23:55.127Z,5.80
2023-02-01T06:26:22.690Z,5.76
2023-02-01T06:28:50.413Z,5.76
2023-02-01T06:31:17.369Z,5.69
2023-02-01T06:33:44.563Z,5.68
2023-02-01T06:36:17.049Z,5.70
2023-02-01T06:38:44.023Z,5.70
2023-02-01T06:41:12.148Z,5.70
2023-02-01T06:43:39.575Z,5.70
2023-02-01T06:46:09.474Z,5.70
2023-02-01T06:48:36.621Z,5.76
2023-02-01T06:51:04.000Z,5.85
2023-02-01T06:57:01.749Z,5.98
2023-02-01T06:59:28.928Z,6.00
2023-02-01T07:01:55.983Z,6.04
2023-02-01T07:04:23.236Z,6.08
2023-02-01T07:06:50.192Z,6.10
2023-02-01T07:09:17.244Z,6.23
2023-02-01T07:11:45.176Z,6.36
2023-02-01T07:14:12.481Z,6.45
2023-02-01T07:16:39.537Z,6.51
2023-02-01T07:19:06.487Z,6.75
2023-02-01T07:21:33.422Z,7.07
2023-02-01T07:24:00.974Z,7.40
2023-02-01T07:26:27.979Z,7.76
2023-02-01T07:28:57.333Z,8.15
2023-02-01T07:31:26.430Z,8.56
2023-02-01T07:33:53.384Z,8.98
2023-02-01T07:36:20.444Z,9.47
2023-02-01T07:38:48.803Z,9.93
2023-02-01T07:41:16.689Z,10.42
2023-02-01T07:43:43.678Z,10.94
2023-02-01T07:46:11.491Z,11.53
2023-02-01T07:48:38.830Z,12.04
2023-02-01T07:51:09.579Z,12.62
2023-02-01T07:53:37.552Z,13.17
2023-02-01T07:56:05.426Z,13.75
2023-02-01T07:58:32.427Z,14.09
2023-02-01T08:01:17.773Z,14.62
2023-02-01T08:03:44.776Z,15.07
2023-02-01T08:06:11.738Z,15.59
2023-02-01T08:08:39.099Z,16.09
2023-02-01T08:11:08.025Z,16.63
2023-02-01T08:13:36.417Z,17.11
2023-02-01T08:16:06.363Z,17.59
2023-02-01T08:18:34.360Z,17.98
2023-02-01T08:21:05.530Z,18.44
2023-02-01T08:23:32.480Z,18.69
2023-02-01T08:26:14.596Z,19.33
2023-02-01T08:28:44.749Z,19.58
2023-02-01T08:31:15.964Z,19.83
2023-02-01T08:33:44.360Z,20.23
2023-02-01T08:36:12.541Z,20.47
2023-02-01T08:38:40.909Z,20.42
2023-02-01T08:41:13.502Z,20.89
2023-02-01T08:43:42.169Z,21.23
2023-02-01T08:46:10.626Z,21.69
2023-02-01T08:48:38.353Z,22.02
2023-02-01T08:51:07.445Z,22.41
2023-02-01T08:53:34.366Z,22.62
2023-02-01T08:56:01.931Z,23.01
2023-02-01T08:58:29.029Z,23.60
2023-02-01T09:00:56.578Z,24.04
2023-02-01T09:03:23.661Z,24.60
2023-02-01T09:05:51.416Z,24.96
2023-02-01T09:08:21.241Z,25.18
2023-02-01T09:10:48.266Z,25.58
2023-02-01T09:13:15.283Z,25.73
2023-02-01T09:15:42.124Z,26.07
2023-02-01T09:18:09.087Z,26.62
2023-02-01T09:20:37.848Z,27.06
2023-02-01T09:23:04.792Z,27.25
2023-02-01T09:25:31.672Z,27.45
2023-02-01T09:27:58.609Z,27.68
2023-02-01T09:30:25.908Z,28.04
2023-02-01T09:32:53.023Z,28.16
2023-02-01T09:35:19.922Z,28.65
2023-02-01T09:37:46.811Z,28.83
2023-02-01T09:40:18.199Z,29.36
2023-02-01T09:43:18.199Z,29.37
2023-02-01T09:45:54.264Z,29.73
2023-02-01T09:48:26.402Z,29.99
2023-02-01T09:50:59.008Z,30.27
2023-02-01T09:53:29.305Z,30.66
2023-02-01T09:56:04.133Z,30.63
2023-02-01T09:58:42.315Z,30.81
2023-02-01T10:01:35.880Z,31.35
2023-02-01T10:04:15.282Z,31.80
2023-02-01T10:06:49.125Z,32.13
2023-02-01T10:09:25.060Z,32.55
2023-02-01T10:11:58.016Z,32.79
2023-02-01T10:14:24.894Z,33.02
2023-02-01T10:17:33.160Z,33.21
2023-02-01T10:20:08.643Z,33.42
2023-02-01T10:23:23.055Z,33.05
2023-02-01T10:25:55.142Z,33.24
2023-02-01T10:28:24.206Z,33.09
2023-02-01T10:30:56.119Z,33.40
2023-02-01T10:33:33.524Z,32.95
2023-02-01T10:36:12.051Z,33.18
2023-02-01T10:38:39.043Z,33.50
2023-02-01T10:41:15.459Z,33.68
2023-02-01T10:43:43.790Z,33.49
2023-02-01T10:46:11.563Z,33.78
2023-02-01T10:48:39.673Z,34.13
2023-02-01T10:51:24.282Z,33.83
2023-02-01T10:54:03.039Z,33.57
2023-02-01T10:56:31.020Z,33.41
2023-02-01T10:59:07.509Z,33.52
2023-02-01T11:01:48.853Z,33.81
2023-02-01T11:04:21.473Z,34.38
2023-02-01T11:06:55.972Z,34.10
2023-02-01T11:09:25.692Z,33.83
2023-02-01T11:11:52.545Z,33.99
2023-02-01T11:14:21.792Z,34.36
2023-02-01T11:16:56.255Z,34.31
2023-02-01T11:19:23.112Z,34.07
2023-02-01T11:21:54.752Z,34.13
2023-02-01T11:24:32.792Z,34.34
2023-02-01T11:27:05.772Z,34.54
2023-02-01T11:29:39.308Z,34.60
2023-02-01T11:32:06.686Z,34.13
2023-02-01T11:34:45.223Z,34.45
2023-02-01T11:37:23.026Z,33.58
2023-02-01T11:39:59.671Z,32.70
2023-02-01T11:42:28.611Z,31.73
2023-02-01T11:45:22.108Z,30.53
2023-02-01T11:47:53.939Z,29.60
2023-02-01T11:50:35.937Z,28.56
2023-02-01T11:53:27.667Z,27.76
2023-02-01T11:56:13.120Z,26.17
2023-02-01T11:59:07.464Z,25.57
2023-02-01T12:01:43.822Z,25.00
2023-02-01T12:04:55.116Z,24.43
2023-02-01T12:07:57.527Z,23.92
2023-02-01T12:11:00.710Z,23.48
2023-02-01T12:13:39.626Z,22.87
2023-02-01T12:16:36.464Z,22.48
2023-02-01T12:19:12.321Z,22.27
2023-02-01T12:22:14.660Z,22.20
2023-02-01T12:24:56.064Z,22.15
2023-02-01T12:27:42.523Z,22.16
2023-02-01T12:30:51.980Z,22.04
2023-02-01T12:33:38.773Z,21.83
2023-02-01T12:36:22.901Z,21.59
2023-02-01T12:38:56.965Z,21.38
2023-02-01T12:41:51.599Z,21.31
2023-02-01T12:44:34.084Z,21.25
2023-02-01T12:47:13.884Z,21.22
2023-02-01T12:50:02.485Z,21.09
2023-02-01T12:52:38.873Z,20.98
2023-02-01T12:55:21.716Z,21.02
2023-02-01T12:57:56.859Z,20.85
2023-02-01T13:00:37.494Z,20.72
2023-02-01T13:03:29.451Z,20.58
2023-02-01T13:06:10.206Z,20.55
2023-02-01T13:08:49.228Z,20.48
2023-02-01T13:11:26.208Z,20.56
2023-02-01T13:13:56.175Z,20.61
2023-02-01T13:16:54.538Z,20.69
2023-02-01T13:19:51.736Z,20.67
2023-02-01T13:22:31.905Z,20.56
2023-02-01T13:25:03.409Z,20.34
2023-02-01T13:27:32.302Z,20.19
2023-02-01T13:30:06.698Z,20.16
2023-02-01T13:33:53.813Z,19.95
2023-02-01T13:36:40.678Z,20.03
2023-02-01T13:39:20.941Z,19.93
2023-02-01T13:41:56.078Z,19.79
2023-02-01T13:44:33.256Z,19.55
2023-02-01T13:47:04.066Z,19.56
2023-02-01T13:49:38.417Z,19.57
2023-02-01T13:52:06.465Z,19.57
2023-02-01T13:54:38.682Z,19.56
2023-02-01T13:57:28.462Z,19.62
2023-02-01T14:00:08.351Z,19.71
2023-02-01T14:02:41.500Z,19.69
2023-02-01T14:05:13.961Z,19.47
2023-02-01T14:08:08.877Z,19.41
2023-02-01T14:10:59.393Z,19.25
2023-02-01T14:13:38.484Z,19.30
2023-02-01T14:16:05.632Z,19.32
2023-02-01T14:18:38.966Z,19.33
2023-02-01T14:21:22.250Z,19.36
2023-02-01T14:24:04.143Z,19.35
2023-02-01T14:26:49.227Z,19.39
2023-02-01T14:29:23.567Z,19.34
2023-02-01T14:32:19.247Z,19.35
2023-02-01T14:35:00.517Z,19.13
2023-02-01T14:37:33.812Z,18.90
2023-02-01T14:40:24.011Z,18.72
2023-02-01T14:42:54.980Z,18.53
2023-02-01T14:45:23.535Z,18.27
2023-02-01T14:48:14.175Z,17.83
2023-02-01T14:50:47.395Z,17.56
2023-02-01T14:53:14.321Z,17.39
2023-02-01T14:55:47.890Z,17.33
2023-02-01T14:58:47.361Z,17.07
2023-02-01T15:01:32.064Z,16.88
2023-02-01T15:04:04.961Z,16.90
2023-02-01T15:06:52.569Z,16.66
2023-02-01T15:09:31.628Z,16.42
2023-02-01T15:12:13.711Z,16.33
2023-02-01T15:14:52.555Z,16.24
2023-02-01T15:17:27.995Z,16.12
2023-02-01T15:20:04.856Z,16.01
2023-02-01T15:22:35.956Z,15.99
2023-02-01T15:25:04.281Z,15.92
2023-02-01T15:27:33.257Z,15.76
2023-02-01T15:30:08.794Z,15.64
2023-02-01T15:32:41.552Z,15.57
2023-02-01T15:35:37.366Z,15.53
2023-02-01T15:38:25.739Z,15.52
2023-02-01T15:41:22.113Z,15.10
2023-02-01T15:43:54.971Z,15.19
2023-02-01T15:46:39.416Z,14.95
2023-02-01T15:49:21.938Z,15.16
2023-02-01T15:51:49.949Z,15.21
2023-02-01T15:54:21.275Z,15.24
2023-02-01T15:56:54.353Z,15.28
2023-02-01T15:59:25.884Z,15.35
2023-02-01T16:01:52.837Z,15.34
2023-02-01T16:04:22.022Z,15.35
2023-02-01T16:06:52.184Z,15.37
2023-02-01T16:09:22.592Z,15.34
2023-02-01T16:11:57.507Z,15.35
2023-02-01T16:14:25.722Z,15.34
2023-02-01T16:16:55.266Z,15.31
2023-02-01T16:19:24.418Z,15.19
2023-02-01T16:21:51.405Z,15.13
2023-02-01T16:24:18.283Z,15.13
2023-02-01T16:26:45.261Z,15.13
2023-02-01T16:29:12.368Z,15.09
2023-02-01T16:31:40.797Z,15.11
2023-02-01T16:34:12.005Z,15.06
2023-02-01T16:36:39.986Z,15.03
2023-02-01T16:39:12.182Z,15.01
2023-02-01T16:41:40.453Z,14.97
2023-02-01T16:44:08.033Z,14.97
2023-02-01T16:46:40.463Z,14.96
2023-02-01T16:49:16.326Z,14.92
2023-02-01T16:51:43.582Z,14.90
2023-02-01T16:54:11.572Z,14.87
2023-02-01T16:56:42.482Z,14.77
2023-02-01T16:59:09.801Z,14.63
2023-02-01T17:01:38.674Z,14.62
2023-02-01T17:04:05.743Z,14.62
2023-02-01T17:06:34.268Z,14.57
2023-02-01T17:09:03.331Z,14.54
2023-02-01T17:11:33.446Z,14.51
2023-02-01T17:14:20.842Z,14.46
2023-02-01T17:16:50.289Z,14.43
2023-02-01T17:19:24.660Z,14.42
2023-02-01T17:21:56.841Z,14.35
2023-02-01T17:24:35.767Z,14.27
2023-02-01T17:27:06.333Z,14.27
2023-02-01T17:29:33.916Z,14.25
2023-02-01T17:32:01.461Z,14.23
2023-02-01T17:34:28.855Z,14.22
2023-02-01T17:36:56.358Z,14.18
2023-02-01T17:39:41.922Z,14.12
2023-02-01T17:42:12.601Z,14.03
2023-02-01T17:44:39.605Z,13.94
2023-02-01T17:47:06.613Z,13.93
2023-02-01T17:49:35.992Z,13.88
2023-02-01T17:52:03.070Z,13.80
2023-02-01T17:54:30.212Z,13.82
2023-02-01T17:57:00.469Z,13.79
2023-02-01T17:59:27.893Z,13.66
2023-02-01T18:02:00.809Z,13.61
2023-02-01T18:04:28.431Z,13.64
2023-02-01T18:06:55.607Z,13.61
2023-02-01T18:09:23.086Z,13.57
2023-02-01T18:11:50.946Z,13.58
2023-02-01T18:14:18.230Z,13.61
2023-02-01T18:16:45.284Z,13.56
2023-02-01T18:19:12.387Z,13.51
2023-02-01T18:21:42.682Z,13.54
2023-02-01T18:24:13.455Z,13.52
2023-02-01T18:26:41.013Z,13.51
2023-02-01T18:29:08.095Z,13.50
2023-02-01T18:31:41.182Z,13.48
2023-02-01T18:34:10.734Z,13.47
2023-02-01T18:36:37.602Z,13.44
2023-02-01T18:39:04.698Z,13.43
2023-02-01T18:41:31.704Z,13.40
2023-02-01T18:43:58.608Z,13.40
2023-02-01T18:46:26.413Z,13.40
2023-02-01T18:48:55.279Z,13.38
2023-02-01T18:51:23.633Z,13.34
2023-02-01T18:53:51.774Z,13.27
2023-02-01T18:56:19.125Z,13.28
2023-02-01T18:58:46.593Z,13.30
2023-02-01T19:01:16.480Z,13.27
2023-02-01T19:03:45.791Z,13.25
2023-02-01T19:06:17.015Z,13.24
2023-02-01T19:08:48.112Z,13.18
2023-02-01T19:11:15.455Z,13.09
2023-02-01T19:13:42.747Z,12.97
2023-02-01T19:16:17.829Z,12.92
2023-02-01T19:18:45.204Z,12.82
2023-02-01T19:21:13.991Z,12.75
2023-02-01T19:23:44.248Z,12.68
2023-02-01T19:26:12.941Z,12.64
2023-02-01T19:28:40.474Z,12.55
2023-02-01T19:31:10.573Z,12.47
2023-02-01T19:33:39.686Z,12.44
2023-02-01T19:36:09.524Z,12.40
2023-02-01T19:38:37.227Z,12.32
2023-02-01T19:41:04.310Z,12.26
2023-02-01T19:43:32.749Z,12.26
2023-02-01T19:46:01.171Z,12.20
2023-02-01T19:48:31.151Z,12.16
2023-02-01T19:50:59.367Z,12.13
2023-02-01T19:53:28.036Z,12.11
2023-02-01T19:55:57.867Z,12.06
2023-02-01T19:58:25.900Z,12.06
2023-02-01T20:00:54.334Z,12.05
2023-02-01T20:03:22.248Z,12.06
2023-02-01T20:05:56.798Z,12.03
2023-02-01T20:08:24.436Z,12.02
2023-02-01T20:10:51.672Z,12.04
2023-02-01T20:13:18.909Z,12.02
2023-02-01T20:15:46.173Z,12.02
2023-02-01T20:21:00.652Z,11.94
2023-02-01T20:22:37.562Z,11.89
2023-02-01T20:25:04.912Z,11.88
2023-02-01T20:27:32.720Z,11.84
2023-02-01T20:29:59.649Z,11.85
2023-02-01T20:32:26.877Z,11.85
2023-02-01T20:34:56.174Z,11.80
2023-02-01T20:37:43.645Z,11.81
2023-02-01T20:40:12.114Z,11.82
2023-02-01T20:42:39.177Z,11.76
2023-02-01T20:45:06.615Z,11.75
2023-02-01T20:47:33.736Z,11.76
2023-02-01T20:50:04.248Z,11.77
2023-02-01T20:52:33.610Z,11.76
2023-02-01T20:55:00.729Z,11.77
2023-02-01T20:57:28.080Z,11.72
2023-02-01T20:59:55.051Z,11.75
2023-02-01T21:02:22.240Z,11.72
2023-02-01T21:04:49.225Z,11.69
2023-02-01T21:07:16.146Z,11.67
2023-02-01T21:09:43.471Z,11.66
2023-02-01T21:12:11.132Z,11.66
2023-02-01T21:14:38.242Z,11.63
2023-02-01T21:17:05.437Z,11.62
2023-02-01T21:19:43.531Z,11.58
2023-02-01T21:22:12.273Z,11.55
2023-02-01T21:24:41.225Z,11.53
2023-02-01T21:27:09.658Z,11.50
2023-02-01T21:29:36.576Z,11.43
2023-02-01T21:32:05.025Z,11.38
2023-02-01T21:34:31.929Z,11.35
2023-02-01T21:36:58.864Z,11.28
2023-02-01T21:39:28.682Z,11.29
2023-02-01T21:42:15.027Z,11.27
2023-02-01T21:44:42.552Z,11.24
2023-02-01T21:47:11.085Z,11.23
2023-02-01T21:49:38.609Z,11.26
2023-02-01T21:52:11.851Z,11.23
2023-02-01T21:54:39.467Z,11.21
2023-02-01T21:57:12.100Z,11.19
2023-02-01T21:59:44.104Z,11.18
2023-02-01T22:02:16.320Z,11.15
2023-02-01T22:04:44.395Z,11.14
2023-02-01T22:07:12.042Z,11.12
2023-02-01T22:09:39.216Z,11.10
2023-02-01T22:12:06.309Z,11.08
2023-02-01T22:14:33.592Z,11.06
2023-02-01T22:17:00.841Z,11.04
2023-02-01T22:19:27.909Z,11.02
2023-02-01T22:21:55.513Z,11.01
2023-02-01T22:24:22.787Z,10.96
2023-02-01T22:26:51.265Z,10.93
2023-02-01T22:29:24.133Z,10.89
2023-02-01T22:31:51.206Z,10.86
2023-02-01T22:34:18.542Z,10.86
2023-02-01T22:36:49.127Z,10.82
2023-02-01T22:39:16.290Z,10.78
2023-02-01T22:41:44.946Z,10.73
2023-02-01T22:44:12.105Z,10.73
2023-02-01T22:46:40.217Z,10.72
2023-02-01T22:49:07.233Z,10.66
2023-02-01T22:51:34.219Z,10.63
2023-02-01T22:54:01.634Z,10.61
2023-02-01T22:56:37.640Z,10.56
2023-02-01T22:59:10.817Z,10.52
2023-02-01T23:01:37.935Z,10.38
2023-02-01T23:04:07.023Z,10.33
2023-02-01T23:06:34.877Z,10.29
2023-02-01T23:09:06.299Z,10.27
2023-02-01T23:11:33.233Z,10.22
2023-02-01T23:14:00.171Z,10.16
2023-02-01T23:16:27.123Z,10.15
2023-02-01T23:18:57.724Z,10.17
2023-02-01T23:21:31.068Z,10.10
2023-02-01T23:24:01.257Z,10.05
2023-02-01T23:26:59.428Z,10.07
2023-02-01T23:29:55.602Z,10.03
2023-02-01T23:32:22.588Z,10.04
2023-02-01T23:35:14.956Z,9.91
2023-02-01T23:38:17.613Z,9.95
2023-02-01T23:40:44.565Z,9.94
2023-02-01T23:43:30.239Z,9.99
2023-02-01T23:46:03.359Z,9.94
2023-02-01T23:49:08.155Z,9.97
2023-02-01T23:51:40.990Z,9.97
2023-02-01T23:54:10.165Z,9.95
2023-02-01T23:56:40.372Z,9.92
2023-02-01T23:59:16.011Z,9.92
